createdAt,value
2023-03-12T00:01:54.674Z,11.70
2023-03-12T00:04:00.119Z,8.95
2023-03-12T00:06:11.007Z,8.32
2023-03-12T00:08:16.605Z,10.35
2023-03-12T00:10:21.534Z,14.90
2023-03-12T00:12:26.260Z,10.43
2023-03-12T00:14:31.256Z,8.15
2023-03-12T00:16:35.982Z,8.75
2023-03-12T00:18:41.066Z,11.77
2023-03-12T00:20:45.898Z,9.05
2023-03-12T00:22:53.504Z,7.82
2023-03-12T00:24:59.522Z,11.15
2023-03-12T00:27:04.247Z,9.00
2023-03-12T00:29:09.176Z,9.68
2023-03-12T00:31:18.894Z,7.75
2023-03-12T00:33:23.590Z,10.93
2023-03-12T00:35:28.555Z,8.75
2023-03-12T00:37:33.590Z,10.60
2023-03-12T00:39:42.060Z,11.25
2023-03-12T00:41:47.468Z,6.90
2023-03-12T00:43:53.330Z,13.07
2023-03-12T00:45:58.043Z,10.45
2023-03-12T00:48:02.881Z,8.63
2023-03-12T00:50:08.421Z,8.23
2023-03-12T00:52:13.250Z,10.88
2023-03-12T00:54:17.998Z,10.20
2023-03-12T00:56:25.520Z,9.48
2023-03-12T00:58:30.279Z,8.57
2023-03-12T01:00:35.045Z,11.18
2023-03-12T01:02:40.392Z,9.32
2023-03-12T01:04:45.034Z,9.18
2023-03-12T01:06:50.026Z,8.88
2023-03-12T01:08:55.554Z,6.43
2023-03-12T01:11:00.608Z,10.85
2023-03-12T01:13:07.890Z,7.88
2023-03-12T01:15:16.318Z,9.80
2023-03-12T01:17:21.434Z,7.90
2023-03-12T01:19:26.135Z,11.05
2023-03-12T01:21:31.999Z,8.00
2023-03-12T01:23:37.052Z,8.57
2023-03-12T01:25:41.742Z,9.93
2023-03-12T01:27:46.670Z,8.48
2023-03-12T01:29:53.988Z,8.75
2023-03-12T01:31:58.786Z,11.80
2023-03-12T01:34:03.525Z,7.20
2023-03-12T01:36:20.821Z,7.68
2023-03-12T01:38:25.710Z,9.85
2023-03-12T01:40:30.538Z,9.75
2023-03-12T01:42:35.427Z,7.93
2023-03-12T01:44:59.920Z,8.65
2023-03-12T01:47:04.578Z,8.10
2023-03-12T01:49:13.736Z,9.18
2023-03-12T01:51:20.330Z,8.00
2023-03-12T01:53:25.874Z,10.05
2023-03-12T01:55:30.614Z,10.20
2023-03-12T01:57:39.928Z,6.13
2023-03-12T01:59:49.856Z,7.80
2023-03-12T02:01:57.615Z,11.45
2023-03-12T02:04:03.461Z,8.52
2023-03-12T02:06:12.921Z,10.80
2023-03-12T02:08:19.947Z,7.70
2023-03-12T02:10:25.731Z,9.18
2023-03-12T02:12:30.493Z,7.20
2023-03-12T02:14:35.644Z,8.98
2023-03-12T02:16:40.464Z,9.48
2023-03-12T02:18:49.962Z,7.25
2023-03-12T02:21:02.966Z,7.50
2023-03-12T02:23:15.868Z,9.85
2023-03-12T02:25:33.375Z,10.02
2023-03-12T02:27:40.892Z,12.82
2023-03-12T02:29:47.579Z,8.15
2023-03-12T02:31:56.907Z,9.82
2023-03-12T02:34:01.793Z,8.38
2023-03-12T02:36:07.149Z,12.98
2023-03-12T02:38:34.616Z,11.63
2023-03-12T02:40:46.917Z,6.97
2023-03-12T02:42:51.933Z,10.95
2023-03-12T02:44:57.134Z,10.27
2023-03-12T02:47:04.042Z,10.45
2023-03-12T02:49:09.076Z,8.20
2023-03-12T02:51:14.432Z,9.00
2023-03-12T02:53:19.298Z,6.40
2023-03-12T02:55:23.968Z,7.88
2023-03-12T02:57:31.864Z,8.95
2023-03-12T02:59:36.697Z,11.35
2023-03-12T03:01:41.775Z,9.30
2023-03-12T03:03:47.222Z,7.03
2023-03-12T03:05:52.324Z,8.43
2023-03-12T03:07:57.666Z,9.38
2023-03-12T03:10:04.427Z,10.18
2023-03-12T03:12:10.032Z,8.02
2023-03-12T03:14:17.446Z,9.13
2023-03-12T03:16:22.216Z,10.02
2023-03-12T03:18:26.893Z,7.05
2023-03-12T03:20:31.574Z,7.88
2023-03-12T03:22:36.933Z,11.88
2023-03-12T03:24:41.625Z,11.43
2023-03-12T03:26:47.082Z,7.63
2023-03-12T03:28:52.306Z,6.80
2023-03-12T03:31:02.309Z,10.38
2023-03-12T03:33:07.404Z,9.30
2023-03-12T03:35:12.929Z,9.70
2023-03-12T03:37:17.630Z,13.40
2023-03-12T03:39:22.458Z,7.07
2023-03-12T03:41:27.301Z,8.35
2023-03-12T03:43:34.828Z,9.43
2023-03-12T03:45:39.819Z,8.70
2023-03-12T03:47:47.273Z,12.88
2023-03-12T03:49:52.487Z,8.27
2023-03-12T03:51:57.572Z,6.80
2023-03-12T03:54:02.797Z,10.00
2023-03-12T03:56:11.813Z,9.48
2023-03-12T03:58:16.752Z,11.27
2023-03-12T04:00:22.484Z,9.63
2023-03-12T04:02:27.643Z,7.18
2023-03-12T04:04:35.210Z,11.65
2023-03-12T04:06:40.986Z,9.35
2023-03-12T04:08:45.910Z,8.88
2023-03-12T04:10:50.816Z,11.18
2023-03-12T04:12:55.686Z,9.68
2023-03-12T04:15:03.188Z,8.85
2023-03-12T04:17:07.863Z,12.73
2023-03-12T04:19:12.626Z,10.25
2023-03-12T04:21:20.015Z,12.50
2023-03-12T04:23:24.960Z,12.52
2023-03-12T04:25:29.680Z,11.63
2023-03-12T04:27:34.432Z,12.50
2023-03-12T04:29:40.905Z,12.52
2023-03-12T04:31:47.500Z,13.13
2023-03-12T04:33:52.449Z,10.38
2023-03-12T04:35:57.994Z,10.32
2023-03-12T04:38:06.726Z,12.50
2023-03-12T04:40:16.509Z,12.52
2023-03-12T04:42:21.427Z,10.45
2023-03-12T04:44:26.412Z,10.98
2023-03-12T04:46:31.706Z,13.50
2023-03-12T04:48:36.744Z,14.50
2023-03-12T04:50:42.704Z,13.07
2023-03-12T04:52:47.463Z,15.02
2023-03-12T04:54:55.379Z,11.77
2023-03-12T04:57:00.516Z,17.10
2023-03-12T04:59:05.796Z,10.93
2023-03-12T05:01:11.704Z,19.55
2023-03-12T05:03:17.099Z,14.70
2023-03-12T05:05:22.356Z,16.10
2023-03-12T05:07:27.190Z,15.63
2023-03-12T05:09:32.180Z,16.73
2023-03-12T05:11:40.991Z,13.30
2023-03-12T05:13:46.552Z,11.88
2023-03-12T05:15:52.448Z,13.07
2023-03-12T05:17:59.644Z,17.63
2023-03-12T05:20:04.455Z,13.90
2023-03-12T05:22:11.592Z,19.63
2023-03-12T05:24:16.456Z,13.98
2023-03-12T05:26:23.241Z,14.13
2023-03-12T05:28:31.321Z,14.52
2023-03-12T05:30:38.934Z,16.02
2023-03-12T05:32:46.834Z,15.07
2023-03-12T05:34:51.928Z,12.63
2023-03-12T05:36:56.611Z,14.57
2023-03-12T05:39:01.666Z,15.35
2023-03-12T05:41:07.198Z,20.70
2023-03-12T05:43:11.981Z,16.27
2023-03-12T05:45:19.755Z,19.05
2023-03-12T05:47:26.739Z,16.30
2023-03-12T05:49:31.669Z,16.30
2023-03-12T05:51:36.726Z,13.80
2023-03-12T05:53:41.506Z,15.05
2023-03-12T05:55:46.653Z,18.63
2023-03-12T05:57:54.138Z,13.60
2023-03-12T05:59:58.754Z,17.00
2023-03-12T06:02:07.636Z,17.88
2023-03-12T06:04:12.337Z,19.80
2023-03-12T06:06:19.844Z,16.67
2023-03-12T06:08:24.509Z,18.40
2023-03-12T06:10:29.583Z,17.63
2023-03-12T06:12:34.263Z,18.33
2023-03-12T06:14:38.871Z,13.98
2023-03-12T06:16:44.140Z,15.45
2023-03-12T06:18:52.576Z,14.60
2023-03-12T06:20:58.496Z,15.20
2023-03-12T06:23:03.297Z,15.65
2023-03-12T06:25:11.425Z,14.60
2023-03-12T06:27:18.027Z,15.30
2023-03-12T06:29:22.863Z,16.38
2023-03-12T06:31:29.895Z,15.75
2023-03-12T06:33:35.413Z,13.52
2023-03-12T06:35:43.157Z,17.48
2023-03-12T06:37:47.853Z,16.85
2023-03-12T06:39:52.745Z,17.02
2023-03-12T06:41:58.706Z,15.25
2023-03-12T06:44:06.195Z,17.33
2023-03-12T06:46:15.191Z,17.52
2023-03-12T06:48:19.970Z,17.25
2023-03-12T06:50:26.511Z,16.17
2023-03-12T06:52:33.808Z,16.85
2023-03-12T06:54:38.609Z,21.65
2023-03-12T06:56:43.879Z,16.70
2023-03-12T06:58:51.853Z,21.02
2023-03-12T07:00:57.975Z,18.00
2023-03-12T07:03:02.943Z,19.85
2023-03-12T07:05:08.582Z,20.00
2023-03-12T07:07:14.557Z,22.15
2023-03-12T07:09:24.309Z,19.45
2023-03-12T07:11:29.112Z,24.83
2023-03-12T07:13:33.853Z,23.27
2023-03-12T07:15:38.809Z,20.83
2023-03-12T07:17:44.346Z,24.63
2023-03-12T07:19:49.922Z,23.30
2023-03-12T07:21:55.419Z,23.25
2023-03-12T07:24:01.126Z,26.42
2023-03-12T07:26:09.712Z,25.70
2023-03-12T07:28:17.714Z,33.28
2023-03-12T07:30:22.423Z,30.33
2023-03-12T07:32:29.095Z,30.55
2023-03-12T07:34:33.970Z,31.88
2023-03-12T07:36:39.836Z,31.70
2023-03-12T07:38:44.933Z,32.65
2023-03-12T07:40:53.616Z,33.33
2023-03-12T07:43:01.254Z,31.70
2023-03-12T07:45:08.116Z,33.10
2023-03-12T07:47:23.703Z,34.05
2023-03-12T07:49:32.900Z,35.60
2023-03-12T07:51:37.888Z,41.17
2023-03-12T07:53:42.738Z,41.85
2023-03-12T07:55:48.886Z,40.10
2023-03-12T07:57:58.585Z,43.30
2023-03-12T08:00:11.182Z,45.00
2023-03-12T08:02:16.308Z,56.70
2023-03-12T08:04:21.376Z,53.65
2023-03-12T08:06:26.475Z,58.60
2023-03-12T08:08:32.883Z,51.63
2023-03-12T08:10:43.171Z,57.17
2023-03-12T08:12:48.136Z,58.17
2023-03-12T08:14:53.236Z,55.47
2023-03-12T08:17:01.947Z,60.40
2023-03-12T08:19:06.662Z,73.18
2023-03-12T08:21:16.537Z,61.47
2023-03-12T08:23:22.517Z,69.93
2023-03-12T08:25:27.402Z,79.25
2023-03-12T08:27:32.652Z,71.80
2023-03-12T08:29:39.859Z,78.55
2023-03-12T08:32:01.510Z,87.57
2023-03-12T08:34:11.196Z,78.80
2023-03-12T08:36:16.334Z,80.15
2023-03-12T08:38:21.360Z,73.43
2023-03-12T08:40:31.273Z,81.22
2023-03-12T08:42:35.914Z,90.85
2023-03-12T08:44:40.909Z,87.53
2023-03-12T08:46:47.882Z,85.53
2023-03-12T08:48:56.987Z,80.13
2023-03-12T08:51:07.729Z,91.47
2023-03-12T08:53:14.014Z,76.78
2023-03-12T08:55:19.974Z,76.95
2023-03-12T08:57:25.586Z,75.38
2023-03-12T08:59:32.838Z,74.28
2023-03-12T09:01:43.058Z,76.05
2023-03-12T09:03:51.082Z,70.30
2023-03-12T09:06:13.432Z,73.88
2023-03-12T09:08:19.325Z,59.15
2023-03-12T09:10:24.005Z,58.28
2023-03-12T09:12:29.285Z,65.28
2023-03-12T09:15:02.149Z,48.70
2023-03-12T09:16:59.075Z,48.10
2023-03-12T09:19:04.263Z,46.58
2023-03-12T09:21:11.806Z,39.13
2023-03-12T09:23:19.289Z,36.10
2023-03-12T09:25:24.192Z,43.83
2023-03-12T09:27:29.151Z,28.48
2023-03-12T09:29:41.392Z,32.75
2023-03-12T09:31:51.235Z,37.17
2023-03-12T09:34:04.548Z,37.55
2023-03-12T09:36:13.310Z,27.35
2023-03-12T09:38:24.108Z,41.03
2023-03-12T09:40:33.157Z,28.02
2023-03-12T09:42:45.495Z,30.05
2023-03-12T09:44:53.790Z,44.97
2023-03-12T09:47:02.115Z,30.73
2023-03-12T09:49:19.155Z,31.13
2023-03-12T09:51:29.865Z,27.33
2023-03-12T09:53:38.724Z,21.77
2023-03-12T09:55:48.214Z,24.00
2023-03-12T09:57:55.614Z,26.02
2023-03-12T10:00:00.765Z,26.15
2023-03-12T10:02:18.965Z,27.73
2023-03-12T10:04:58.885Z,26.42
2023-03-12T10:07:12.647Z,28.65
2023-03-12T10:09:32.143Z,21.00
2023-03-12T10:11:47.070Z,27.25
2023-03-12T10:14:05.762Z,27.02
2023-03-12T10:16:21.058Z,27.08
2023-03-12T10:18:44.759Z,30.95
2023-03-12T10:21:02.849Z,24.38
2023-03-12T10:23:16.041Z,25.85
2023-03-12T10:27:34.277Z,32.75
2023-03-12T10:29:44.984Z,19.23
2023-03-12T10:32:00.451Z,29.40
2023-03-12T10:34:21.241Z,21.77
2023-03-12T10:36:31.236Z,15.23
2023-03-12T10:38:41.601Z,19.85
2023-03-12T10:40:48.032Z,21.20
2023-03-12T10:42:54.433Z,19.20
2023-03-12T10:45:04.620Z,20.38
2023-03-12T10:47:29.799Z,26.42
2023-03-12T10:49:38.279Z,24.65
2023-03-12T10:51:58.067Z,17.98
2023-03-12T10:54:24.918Z,27.13
2023-03-12T10:56:32.640Z,26.13
2023-03-12T10:58:41.349Z,27.50
2023-03-12T11:01:00.113Z,21.33
2023-03-12T11:03:11.652Z,26.75
2023-03-12T11:05:27.270Z,23.13
2023-03-12T11:07:33.335Z,21.65
2023-03-12T11:09:42.574Z,29.25
2023-03-12T11:11:50.220Z,25.15
2023-03-12T11:14:10.860Z,26.38
2023-03-12T11:16:31.905Z,22.65
2023-03-12T11:18:41.337Z,27.90
2023-03-12T11:20:46.612Z,22.85
2023-03-12T11:22:59.301Z,20.70
2023-03-12T11:25:09.076Z,19.23
2023-03-12T11:27:32.921Z,18.25
2023-03-12T11:29:41.811Z,25.23
2023-03-12T11:32:03.653Z,22.73
2023-03-12T11:34:11.064Z,23.65
2023-03-12T11:36:41.800Z,26.17
2023-03-12T11:38:54.010Z,34.30
2023-03-12T11:41:13.698Z,26.97
2023-03-12T11:43:43.761Z,26.17
2023-03-12T11:46:13.664Z,25.90
2023-03-12T11:48:27.911Z,26.13
2023-03-12T11:50:47.568Z,28.25
2023-03-12T11:53:08.503Z,34.10
2023-03-12T11:55:22.510Z,20.05
2023-03-12T11:57:38.772Z,20.30
2023-03-12T12:00:01.621Z,30.70
2023-03-12T12:02:23.327Z,25.58
2023-03-12T12:04:57.496Z,29.75
2023-03-12T12:07:11.623Z,29.40
2023-03-12T12:09:26.542Z,23.95
2023-03-12T12:11:41.163Z,26.25
2023-03-12T12:13:58.503Z,26.50
2023-03-12T12:16:19.386Z,24.70
2023-03-12T12:18:45.121Z,37.45
2023-03-12T12:20:58.546Z,32.78
2023-03-12T12:23:17.882Z,33.58
2023-03-12T12:25:52.647Z,27.50
2023-03-12T12:28:14.397Z,36.85
2023-03-12T12:30:28.839Z,27.30
2023-03-12T12:32:45.643Z,29.27
2023-03-12T12:35:04.889Z,28.60
2023-03-12T12:37:40.039Z,27.02
2023-03-12T12:39:50.069Z,25.60
2023-03-12T12:41:58.667Z,22.88
2023-03-12T12:44:08.218Z,32.95
2023-03-12T12:46:19.755Z,33.08
2023-03-12T12:48:28.426Z,16.08
2023-03-12T12:50:36.740Z,29.48
2023-03-12T12:52:41.872Z,22.48
2023-03-12T12:54:58.541Z,27.00
2023-03-12T12:57:09.401Z,21.83
2023-03-12T12:59:36.746Z,22.20
2023-03-12T13:01:45.458Z,18.50
2023-03-12T13:03:52.236Z,27.00
2023-03-12T13:05:59.850Z,24.08
2023-03-12T13:08:06.456Z,15.65
2023-03-12T13:10:52.927Z,24.65
2023-03-12T13:13:07.614Z,21.00
2023-03-12T13:15:40.252Z,27.90
2023-03-12T13:18:11.825Z,31.25
2023-03-12T13:20:21.016Z,22.83
2023-03-12T13:22:34.030Z,21.85
2023-03-12T13:24:45.475Z,21.33
2023-03-12T13:26:56.840Z,25.48
2023-03-12T13:29:16.820Z,17.88
2023-03-12T13:31:54.424Z,26.77
2023-03-12T13:34:11.239Z,22.58
2023-03-12T13:36:28.368Z,28.88
2023-03-12T13:38:43.492Z,21.02
2023-03-12T13:41:07.963Z,23.25
2023-03-12T13:43:16.571Z,24.85
2023-03-12T13:45:32.032Z,17.98
2023-03-12T13:47:45.329Z,28.58
2023-03-12T13:49:58.084Z,23.83
2023-03-12T13:52:24.564Z,27.23
2023-03-12T13:54:34.664Z,19.27
2023-03-12T13:56:40.160Z,23.25
2023-03-12T13:58:51.651Z,21.05
2023-03-12T14:00:59.700Z,34.42
2023-03-12T14:03:09.117Z,22.30
2023-03-12T14:05:19.048Z,25.55
2023-03-12T14:07:45.363Z,21.48
2023-03-12T14:10:07.528Z,25.67
2023-03-12T14:14:42.412Z,25.75
2023-03-12T14:16:49.522Z,22.60
2023-03-12T14:18:55.445Z,19.65
2023-03-12T14:21:05.450Z,28.58
2023-03-12T14:23:16.301Z,27.52
2023-03-12T14:25:31.894Z,18.17
2023-03-12T14:27:37.139Z,31.10
2023-03-12T14:29:47.940Z,26.48
2023-03-12T14:31:54.984Z,19.48
2023-03-12T14:34:03.381Z,20.98
2023-03-12T14:36:17.538Z,21.02
2023-03-12T14:38:28.213Z,23.52
2023-03-12T14:40:42.555Z,28.60
2023-03-12T14:42:47.580Z,29.63
2023-03-12T14:45:00.421Z,29.27
2023-03-12T14:47:10.127Z,21.67
2023-03-12T14:49:23.380Z,20.02
2023-03-12T14:51:32.661Z,25.83
2023-03-12T14:53:39.739Z,26.17
2023-03-12T14:55:44.920Z,36.33
2023-03-12T14:57:49.684Z,32.63
2023-03-12T14:59:59.271Z,24.55
2023-03-12T15:02:08.048Z,31.05
2023-03-12T15:04:19.651Z,27.67
2023-03-12T15:06:31.939Z,31.48
2023-03-12T15:08:42.535Z,30.93
2023-03-12T15:10:51.866Z,29.00
2023-03-12T15:12:59.519Z,30.73
2023-03-12T15:15:07.854Z,24.48
2023-03-12T15:17:19.855Z,26.52
2023-03-12T15:19:29.143Z,32.47
2023-03-12T15:21:38.576Z,31.73
2023-03-12T15:23:48.284Z,25.50
2023-03-12T15:26:15.164Z,31.23
2023-03-12T15:28:30.969Z,34.70
2023-03-12T15:30:38.791Z,23.00
2023-03-12T15:32:47.063Z,26.30
2023-03-12T15:34:51.875Z,24.95
2023-03-12T15:36:59.297Z,25.27
2023-03-12T15:39:07.335Z,34.80
2023-03-12T15:41:12.375Z,31.95
2023-03-12T15:43:21.116Z,29.02
2023-03-12T15:45:27.934Z,31.58
2023-03-12T15:47:36.575Z,19.42
2023-03-12T15:49:41.937Z,23.65
2023-03-12T15:52:05.069Z,20.00
2023-03-12T15:54:27.438Z,24.75
2023-03-12T15:56:35.626Z,22.85
2023-03-12T15:58:42.792Z,28.50
2023-03-12T16:00:49.274Z,30.38
2023-03-12T16:02:59.088Z,29.90
2023-03-12T16:05:03.806Z,22.10
2023-03-12T16:07:15.166Z,29.10
2023-03-12T16:09:22.680Z,29.55
2023-03-12T16:11:30.808Z,27.30
2023-03-12T16:13:37.389Z,33.30
2023-03-12T16:15:42.521Z,38.00
2023-03-12T16:17:48.542Z,26.50
2023-03-12T16:19:53.179Z,30.10
2023-03-12T16:22:00.153Z,38.05
2023-03-12T16:24:07.962Z,37.38
2023-03-12T16:26:18.118Z,28.88
2023-03-12T16:28:24.140Z,33.97
2023-03-12T16:30:31.479Z,27.30
2023-03-12T16:32:36.234Z,32.03
2023-03-12T16:34:41.213Z,33.95
2023-03-12T16:36:46.255Z,29.98
2023-03-12T16:38:50.833Z,27.17
2023-03-12T16:40:58.233Z,29.30
2023-03-12T16:43:05.972Z,28.05
2023-03-12T16:45:14.181Z,32.45
2023-03-12T16:47:19.268Z,29.85
2023-03-12T16:49:23.964Z,20.88
2023-03-12T16:51:30.694Z,20.67
2023-03-12T16:53:35.661Z,21.15
2023-03-12T16:55:50.062Z,18.60
2023-03-12T16:58:00.441Z,20.23
2023-03-12T17:00:08.221Z,15.73
2023-03-12T17:02:18.242Z,12.10
2023-03-12T17:04:23.024Z,11.43
2023-03-12T17:06:29.696Z,17.88
2023-03-12T17:08:36.058Z,21.65
2023-03-12T17:10:41.070Z,11.15
2023-03-12T17:12:48.329Z,17.48
2023-03-12T17:14:56.339Z,15.73
2023-03-12T17:17:01.033Z,15.93
2023-03-12T17:19:06.236Z,21.10
2023-03-12T17:21:14.080Z,15.80
2023-03-12T17:23:19.262Z,12.73
2023-03-12T17:25:26.851Z,10.25
2023-03-12T17:27:31.554Z,9.63
2023-03-12T17:29:39.208Z,15.75
2023-03-12T17:31:48.423Z,8.93
2023-03-12T17:33:54.507Z,11.15
2023-03-12T17:36:01.153Z,6.05
2023-03-12T17:38:05.942Z,6.72
2023-03-12T17:40:12.259Z,19.05
2023-03-12T17:42:16.940Z,8.70
2023-03-12T17:44:22.934Z,12.52
2023-03-12T17:46:28.009Z,10.63
2023-03-12T17:48:35.734Z,7.00
2023-03-12T17:50:41.082Z,19.25
2023-03-12T17:52:46.278Z,16.40
2023-03-12T17:54:52.156Z,17.33
2023-03-12T17:56:57.106Z,15.60
2023-03-12T17:59:02.026Z,14.80
2023-03-12T18:01:07.067Z,13.80
2023-03-12T18:03:13.377Z,8.88
2023-03-12T18:05:20.772Z,19.77
2023-03-12T18:07:25.476Z,15.32
2023-03-12T18:09:30.333Z,18.17
2023-03-12T18:11:34.981Z,14.23
2023-03-12T18:13:42.547Z,17.88
2023-03-12T18:15:54.630Z,11.63
2023-03-12T18:18:01.041Z,19.20
2023-03-12T18:20:12.333Z,19.23
2023-03-12T18:22:20.152Z,22.77
2023-03-12T18:24:24.803Z,22.52
2023-03-12T18:26:29.636Z,20.88
2023-03-12T18:28:34.381Z,15.73
2023-03-12T18:30:39.084Z,17.02
2023-03-12T18:32:44.253Z,15.88
2023-03-12T18:34:50.273Z,15.23
2023-03-12T18:36:54.890Z,10.95
2023-03-12T18:39:04.694Z,13.18
2023-03-12T18:41:10.655Z,17.30
2023-03-12T18:43:15.579Z,11.75
2023-03-12T18:45:20.440Z,18.23
2023-03-12T18:47:26.148Z,14.43
2023-03-12T18:49:30.832Z,13.10
2023-03-12T18:51:35.534Z,21.02
2023-03-12T18:53:40.278Z,13.40
2023-03-12T18:55:53.850Z,20.60
2023-03-12T18:57:58.747Z,18.48
2023-03-12T19:00:03.711Z,13.27
2023-03-12T19:02:08.467Z,13.00
2023-03-12T19:04:19.511Z,14.68
2023-03-12T19:06:24.227Z,10.65
2023-03-12T19:08:41.421Z,14.77
2023-03-12T19:10:54.563Z,14.93
2023-03-12T19:15:04.171Z,16.52
2023-03-12T19:17:09.004Z,14.25
2023-03-12T19:19:17.352Z,15.60
2023-03-12T19:21:22.162Z,14.98
2023-03-12T19:23:27.006Z,25.02
2023-03-12T19:25:32.240Z,16.23
2023-03-12T19:27:41.411Z,20.55
2023-03-12T19:29:49.201Z,14.75
2023-03-12T19:31:54.371Z,17.73
2023-03-12T19:33:59.480Z,14.88
2023-03-12T19:36:04.922Z,19.75
2023-03-12T19:38:12.179Z,16.42
2023-03-12T19:40:17.014Z,17.33
2023-03-12T19:42:21.759Z,25.17
2023-03-12T19:44:31.918Z,15.80
2023-03-12T19:46:36.692Z,22.83
2023-03-12T19:48:41.648Z,21.52
2023-03-12T19:50:48.331Z,25.27
2023-03-12T19:52:53.120Z,21.02
2023-03-12T19:55:04.714Z,22.83
2023-03-12T19:57:10.615Z,18.63
2023-03-12T19:59:15.577Z,22.13
2023-03-12T20:01:23.211Z,37.08
2023-03-12T20:03:28.669Z,17.02
2023-03-12T20:05:35.632Z,26.88
2023-03-12T20:07:42.870Z,20.92
2023-03-12T20:09:49.959Z,20.05
2023-03-12T20:11:54.777Z,15.50
2023-03-12T20:13:59.861Z,22.20
2023-03-12T20:16:05.223Z,21.90
2023-03-12T20:18:13.153Z,21.00
2023-03-12T20:20:20.384Z,21.58
2023-03-12T20:22:28.336Z,20.95
2023-03-12T20:24:33.260Z,21.23
2023-03-12T20:26:41.920Z,22.48
2023-03-12T20:28:47.046Z,18.50
2023-03-12T20:30:51.764Z,18.25
2023-03-12T20:32:58.814Z,20.88
2023-03-12T20:35:06.414Z,15.98
2023-03-12T20:37:11.248Z,23.50
2023-03-12T20:39:17.248Z,14.65
2023-03-12T20:41:22.043Z,21.38
2023-03-12T20:43:26.784Z,16.42
2023-03-12T20:45:33.222Z,27.60
2023-03-12T20:47:40.535Z,15.55
2023-03-12T20:49:45.411Z,16.55
2023-03-12T20:51:53.032Z,15.27
2023-03-12T20:53:58.294Z,17.60
2023-03-12T20:56:06.550Z,18.85
2023-03-12T20:58:11.625Z,19.42
2023-03-12T21:00:16.976Z,17.00
2023-03-12T21:02:21.994Z,18.23
2023-03-12T21:04:27.029Z,16.23
2023-03-12T21:06:35.447Z,19.65
2023-03-12T21:08:43.242Z,18.45
2023-03-12T21:10:50.706Z,17.77
2023-03-12T21:12:55.554Z,22.55
2023-03-12T21:15:06.508Z,20.90
2023-03-12T21:17:13.855Z,20.42
2023-03-12T21:19:21.197Z,18.23
2023-03-12T21:21:26.544Z,20.73
2023-03-12T21:23:43.217Z,17.60
2023-03-12T21:25:48.189Z,22.10
2023-03-12T21:27:52.980Z,16.65
2023-03-12T21:29:57.938Z,23.27
2023-03-12T21:32:02.729Z,25.23
2023-03-12T21:34:09.514Z,21.95
2023-03-12T21:36:16.496Z,18.92
2023-03-12T21:38:21.344Z,25.60
2023-03-12T21:40:29.031Z,23.77
2023-03-12T21:42:35.838Z,17.33
2023-03-12T21:44:43.804Z,17.70
2023-03-12T21:46:49.090Z,23.27
2023-03-12T21:48:54.018Z,18.20
2023-03-12T21:50:59.167Z,29.48
2023-03-12T21:53:11.597Z,25.65
2023-03-12T21:55:22.568Z,19.95
2023-03-12T21:57:30.602Z,24.92
2023-03-12T21:59:35.607Z,27.65
2023-03-12T22:01:40.697Z,29.48
2023-03-12T22:03:47.569Z,17.40
2023-03-12T22:05:55.660Z,23.30
2023-03-12T22:08:02.024Z,24.58
2023-03-12T22:10:07.541Z,20.33
2023-03-12T22:12:12.625Z,24.25
2023-03-12T22:14:21.320Z,32.90
2023-03-12T22:16:28.692Z,27.17
2023-03-12T22:18:36.568Z,29.42
2023-03-12T22:20:41.529Z,24.05
2023-03-12T22:22:51.785Z,28.95
2023-03-12T22:25:00.264Z,31.50
2023-03-12T22:27:07.608Z,34.78
2023-03-12T22:29:14.269Z,29.02
2023-03-12T22:31:28.094Z,32.20
2023-03-12T22:33:39.153Z,23.58
2023-03-12T22:35:48.954Z,27.52
2023-03-12T22:37:56.603Z,23.52
2023-03-12T22:40:08.051Z,23.80
2023-03-12T22:42:13.112Z,30.23
2023-03-12T22:44:19.210Z,22.75
2023-03-12T22:46:45.238Z,22.02
2023-03-12T22:48:55.094Z,28.23
2023-03-12T22:51:01.022Z,26.23
2023-03-12T22:53:06.235Z,18.77
2023-03-12T22:55:12.178Z,24.88
2023-03-12T22:57:21.068Z,25.67
2023-03-12T22:59:28.680Z,25.65
2023-03-12T23:01:37.590Z,20.80
2023-03-12T23:03:45.005Z,25.88
2023-03-12T23:05:49.902Z,24.83
2023-03-12T23:07:57.128Z,18.10
2023-03-12T23:10:14.173Z,18.73
2023-03-12T23:12:21.584Z,22.05
2023-03-12T23:14:29.018Z,19.83
2023-03-12T23:16:40.518Z,21.63
2023-03-12T23:18:49.932Z,19.38
2023-03-12T23:21:04.035Z,20.13
2023-03-12T23:23:09.598Z,16.63
2023-03-12T23:25:15.280Z,23.23
2023-03-12T23:27:29.211Z,22.15
2023-03-12T23:29:38.328Z,19.60
2023-03-12T23:31:46.195Z,18.60
2023-03-12T23:33:52.451Z,20.92
2023-03-12T23:36:03.125Z,19.42
2023-03-12T23:38:11.393Z,18.67
2023-03-12T23:40:22.762Z,14.38
2023-03-12T23:42:32.055Z,14.13
2023-03-12T23:44:46.730Z,17.17
2023-03-12T23:46:54.707Z,16.95
2023-03-12T23:49:02.257Z,18.98
2023-03-12T23:51:09.312Z,21.17
2023-03-12T23:53:17.966Z,20.13
2023-03-12T23:55:25.591Z,24.83
2023-03-12T23:57:31.499Z,16.98
2023-03-12T23:59:40.187Z,15.80
